sensor_id;sensor_type;location;lat;lon;timestamp;pressure;altitude;pressure_sealevel;temperature;humidity
16355;BME280;8287;51.644;8.494;2023-04-27T00:01:10;100763.09;;;7.33;71.12
16355;BME280;8287;51.644;8.494;2023-04-27T00:03:37;100760.97;;;7.30;72.36
16355;BME280;8287;51.644;8.494;2023-04-27T00:06:04;100766.81;;;7.22;72.13
16355;BME280;8287;51.644;8.494;2023-04-27T00:08:31;100761.84;;;7.11;72.42
16355;BME280;8287;51.644;8.494;2023-04-27T00:10:58;100766.63;;;7.09;72.62
16355;BME280;8287;51.644;8.494;2023-04-27T00:13:24;100765.06;;;7.03;72.44
16355;BME280;8287;51.644;8.494;2023-04-27T00:15:51;100764.25;;;7.07;72.02
16355;BME280;8287;51.644;8.494;2023-04-27T00:18:19;100764.50;;;7.11;71.55
16355;BME280;8287;51.644;8.494;2023-04-27T00:20:46;100770.06;;;6.99;71.69
16355;BME280;8287;51.644;8.494;2023-04-27T00:23:12;100766.97;;;6.92;71.98
16355;BME280;8287;51.644;8.494;2023-04-27T00:25:39;100763.81;;;6.85;71.99
16355;BME280;8287;51.644;8.494;2023-04-27T00:28:05;100763.06;;;6.80;72.39
16355;BME280;8287;51.644;8.494;2023-04-27T00:30:32;100762.00;;;6.76;72.28
16355;BME280;8287;51.644;8.494;2023-04-27T00:33:00;100766.19;;;6.82;72.20
16355;BME280;8287;51.644;8.494;2023-04-27T00:35:28;100765.13;;;6.78;72.24
16355;BME280;8287;51.644;8.494;2023-04-27T00:37:54;100762.25;;;6.74;72.43
16355;BME280;8287;51.644;8.494;2023-04-27T00:40:21;100760.19;;;6.66;72.70
16355;BME280;8287;51.644;8.494;2023-04-27T00:42:47;100763.09;;;6.65;72.76
16355;BME280;8287;51.644;8.494;2023-04-27T00:45:14;100762.31;;;6.59;72.97
16355;BME280;8287;51.644;8.494;2023-04-27T00:47:41;100764.69;;;6.56;73.00
16355;BME280;8287;51.644;8.494;2023-04-27T00:50:08;100758.91;;;6.44;73.65
16355;BME280;8287;51.644;8.494;2023-04-27T00:52:38;100763.91;;;6.40;74.02
16355;BME280;8287;51.644;8.494;2023-04-27T00:55:05;100771.81;;;6.40;74.22
16355;BME280;8287;51.644;8.494;2023-04-27T00:57:32;100763.13;;;6.35;74.24
16355;BME280;8287;51.644;8.494;2023-04-27T01:00:00;100769.97;;;6.36;73.98
16355;BME280;8287;51.644;8.494;2023-04-27T01:02:29;100768.13;;;6.32;73.94
16355;BME280;8287;51.644;8.494;2023-04-27T01:04:55;100777.88;;;6.26;74.87
16355;BME280;8287;51.644;8.494;2023-04-27T01:07:24;100769.72;;;6.28;74.81
16355;BME280;8287;51.644;8.494;2023-04-27T01:09:52;100776.56;;;6.24;74.42
16355;BME280;8287;51.644;8.494;2023-04-27T01:12:19;100783.13;;;6.11;75.21
16355;BME280;8287;51.644;8.494;2023-04-27T01:14:45;100779.47;;;6.12;74.99
16355;BME280;8287;51.644;8.494;2023-04-27T01:17:12;100785.50;;;6.13;74.79
16355;BME280;8287;51.644;8.494;2023-04-27T01:19:39;100796.03;;;6.23;74.11
16355;BME280;8287;51.644;8.494;2023-04-27T01:22:06;100795.25;;;6.22;73.62
16355;BME280;8287;51.644;8.494;2023-04-27T01:24:34;100798.41;;;6.19;73.51
16355;BME280;8287;51.644;8.494;2023-04-27T01:27:01;100800.25;;;6.14;73.52
16355;BME280;8287;51.644;8.494;2023-04-27T01:29:29;100801.03;;;5.99;74.64
16355;BME280;8287;51.644;8.494;2023-04-27T01:31:55;100805.78;;;5.97;74.63
16355;BME280;8287;51.644;8.494;2023-04-27T01:34:22;100810.19;;;5.82;75.18
16355;BME280;8287;51.644;8.494;2023-04-27T01:36:48;100812.31;;;5.80;76.24
16355;BME280;8287;51.644;8.494;2023-04-27T01:39:15;100814.13;;;5.74;76.63
16355;BME280;8287;51.644;8.494;2023-04-27T01:41:43;100803.84;;;5.73;76.09
16355;BME280;8287;51.644;8.494;2023-04-27T01:44:09;100813.31;;;5.74;76.09
16355;BME280;8287;51.644;8.494;2023-04-27T01:46:36;100812.81;;;5.77;75.45
16355;BME280;8287;51.644;8.494;2023-04-27T01:49:03;100818.06;;;5.77;75.59
16355;BME280;8287;51.644;8.494;2023-04-27T01:51:29;100826.47;;;5.79;75.39
16355;BME280;8287;51.644;8.494;2023-04-27T01:53:57;100830.91;;;5.68;75.87
16355;BME280;8287;51.644;8.494;2023-04-27T01:56:23;100830.69;;;5.75;75.54
16355;BME280;8287;51.644;8.494;2023-04-27T01:58:52;100828.59;;;5.77;75.23
16355;BME280;8287;51.644;8.494;2023-04-27T02:01:19;100836.53;;;5.87;74.45
16355;BME280;8287;51.644;8.494;2023-04-27T02:03:46;100837.31;;;5.87;74.43
16355;BME280;8287;51.644;8.494;2023-04-27T02:06:13;100837.56;;;5.86;75.69
16355;BME280;8287;51.644;8.494;2023-04-27T02:08:39;100839.16;;;5.87;75.99
16355;BME280;8287;51.644;8.494;2023-04-27T02:11:06;100836.28;;;5.88;76.12
16355;BME280;8287;51.644;8.494;2023-04-27T02:13:33;100843.63;;;5.91;76.09
16355;BME280;8287;51.644;8.494;2023-04-27T02:16:00;100844.94;;;5.99;75.15
16355;BME280;8287;51.644;8.494;2023-04-27T02:18:28;100841.78;;;5.92;76.22
16355;BME280;8287;51.644;8.494;2023-04-27T02:20:56;100851.97;;;5.78;77.63
16355;BME280;8287;51.644;8.494;2023-04-27T02:23:23;100851.25;;;5.88;77.48
16355;BME280;8287;51.644;8.494;2023-04-27T02:25:49;100850.19;;;5.89;76.98
16355;BME280;8287;51.644;8.494;2023-04-27T02:28:16;100863.06;;;5.85;78.06
16355;BME280;8287;51.644;8.494;2023-04-27T02:30:42;100856.00;;;5.96;77.34
16355;BME280;8287;51.644;8.494;2023-04-27T02:33:10;100854.41;;;5.95;78.76
16355;BME280;8287;51.644;8.494;2023-04-27T02:35:37;100844.94;;;5.99;79.16
16355;BME280;8287;51.644;8.494;2023-04-27T02:38:03;100836.28;;;5.98;78.51
16355;BME280;8287;51.644;8.494;2023-04-27T02:40:31;100848.66;;;6.03;78.35
16355;BME280;8287;51.644;8.494;2023-04-27T02:42:57;100849.94;;;6.00;78.55
16355;BME280;8287;51.644;8.494;2023-04-27T02:45:24;100849.41;;;5.93;78.87
16355;BME280;8287;51.644;8.494;2023-04-27T02:47:50;100849.16;;;5.95;78.90
16355;BME280;8287;51.644;8.494;2023-04-27T02:50:18;100848.63;;;5.93;79.03
16355;BME280;8287;51.644;8.494;2023-04-27T02:52:45;100854.66;;;5.93;79.14
16355;BME280;8287;51.644;8.494;2023-04-27T02:55:12;100856.25;;;5.99;nan
16355;BME280;8287;51.644;8.494;2023-04-27T02:57:38;100859.72;;;6.10;78.43
16355;BME280;8287;51.644;8.494;2023-04-27T03:00:06;100851.25;;;6.08;79.09
16355;BME280;8287;51.644;8.494;2023-04-27T03:02:35;100839.97;;;6.07;79.31
16355;BME280;8287;51.644;8.494;2023-04-27T03:05:02;100849.97;;;6.15;78.20
16355;BME280;8287;51.644;8.494;2023-04-27T03:07:30;100850.19;;;5.99;79.89
16355;BME280;8287;51.644;8.494;2023-04-27T03:09:57;100840.47;;;5.94;80.14
16355;BME280;8287;51.644;8.494;2023-04-27T03:12:23;100838.88;;;5.93;80.15
16355;BME280;8287;51.644;8.494;2023-04-27T03:14:50;100831.28;;;5.92;80.76
16355;BME280;8287;51.644;8.494;2023-04-27T03:17:16;100829.94;;;5.94;80.27
16355;BME280;8287;51.644;8.494;2023-04-27T03:19:43;100824.69;;;5.94;80.39
16355;BME280;8287;51.644;8.494;2023-04-27T03:22:10;100822.06;;;5.79;80.83
16355;BME280;8287;51.644;8.494;2023-04-27T03:24:37;100816.22;;;5.77;80.75
16355;BME280;8287;51.644;8.494;2023-04-27T03:27:04;100819.44;;;5.79;80.53
16355;BME280;8287;51.644;8.494;2023-04-27T03:29:31;100814.13;;;5.74;80.75
16355;BME280;8287;51.644;8.494;2023-04-27T03:31:57;100824.09;;;5.67;80.60
16355;BME280;8287;51.644;8.494;2023-04-27T03:34:24;100821.47;;;5.72;80.48
16355;BME280;8287;51.644;8.494;2023-04-27T03:36:50;100832.78;;;5.68;80.35
16355;BME280;8287;51.644;8.494;2023-04-27T03:39:17;100844.56;;;5.60;80.51
16355;BME280;8287;51.644;8.494;2023-04-27T03:41:45;100836.41;;;5.57;80.74
16355;BME280;8287;51.644;8.494;2023-04-27T03:44:11;100836.91;;;5.49;80.65
16355;BME280;8287;51.644;8.494;2023-04-27T03:46:38;100839.00;;;5.47;80.54
16355;BME280;8287;51.644;8.494;2023-04-27T03:49:04;100840.56;;;5.48;81.14
16355;BME280;8287;51.644;8.494;2023-04-27T03:51:31;100841.09;;;5.45;80.78
16355;BME280;8287;51.644;8.494;2023-04-27T03:53:58;100840.28;;;5.34;81.08
16355;BME280;8287;51.644;8.494;2023-04-27T03:56:25;100842.66;;;5.36;81.37
16355;BME280;8287;51.644;8.494;2023-04-27T03:58:52;100840.00;;;5.26;81.51
16355;BME280;8287;51.644;8.494;2023-04-27T04:01:19;100839.94;;;5.21;81.55
16355;BME280;8287;51.644;8.494;2023-04-27T04:03:46;100848.88;;;5.20;81.56
16355;BME280;8287;51.644;8.494;2023-04-27T04:06:12;100846.22;;;5.10;81.56
16355;BME280;8287;51.644;8.494;2023-04-27T04:08:39;100844.06;;;5.07;81.22
16355;BME280;8287;51.644;8.494;2023-04-27T04:11:05;100842.97;;;4.93;81.14
16355;BME280;8287;51.644;8.494;2023-04-27T04:13:32;100845.03;;;4.86;82.34
16355;BME280;8287;51.644;8.494;2023-04-27T04:16:02;100846.06;;;4.85;82.43
16355;BME280;8287;51.644;8.494;2023-04-27T04:18:29;100841.88;;;4.89;82.40
16355;BME280;8287;51.644;8.494;2023-04-27T04:20:56;100856.84;;;4.88;82.10
16355;BME280;8287;51.644;8.494;2023-04-27T04:23:22;100852.38;;;4.89;81.41
16355;BME280;8287;51.644;8.494;2023-04-27T04:25:49;100856.06;;;4.88;81.17
16355;BME280;8287;51.644;8.494;2023-04-27T04:28:15;100856.81;;;4.78;81.75
16355;BME280;8287;51.644;8.494;2023-04-27T04:30:42;100865.44;;;4.79;81.48
16355;BME280;8287;51.644;8.494;2023-04-27T04:33:10;100864.88;;;4.72;82.04
16355;BME280;8287;51.644;8.494;2023-04-27T04:35:37;100873.31;;;4.79;81.90
16355;BME280;8287;51.644;8.494;2023-04-27T04:38:03;100876.47;;;4.76;81.91
16355;BME280;8287;51.644;8.494;2023-04-27T04:40:30;100864.84;;;4.67;82.90
16355;BME280;8287;51.644;8.494;2023-04-27T04:42:56;100881.41;;;4.72;82.95
16355;BME280;8287;51.644;8.494;2023-04-27T04:45:23;100884.91;;;4.83;81.80
16355;BME280;8287;51.644;8.494;2023-04-27T04:47:50;100881.72;;;4.81;81.75
16355;BME280;8287;51.644;8.494;2023-04-27T04:50:20;100871.22;;;4.76;81.35
16355;BME280;8287;51.644;8.494;2023-04-27T04:52:47;100884.13;;;4.82;80.90
16355;BME280;8287;51.644;8.494;2023-04-27T04:55:14;100882.81;;;4.85;80.46
16355;BME280;8287;51.644;8.494;2023-04-27T04:57:40;100890.66;;;4.80;80.75
16355;BME280;8287;51.644;8.494;2023-04-27T05:00:08;100893.81;;;4.82;80.47
16355;BME280;8287;51.644;8.494;2023-04-27T05:02:38;100890.41;;;4.81;80.63
16355;BME280;8287;51.644;8.494;2023-04-27T05:05:05;100897.28;;;4.87;80.26
16355;BME280;8287;51.644;8.494;2023-04-27T05:07:33;100892.78;;;4.83;81.46
16355;BME280;8287;51.644;8.494;2023-04-27T05:10:00;100890.69;;;4.85;81.01
16355;BME280;8287;51.644;8.494;2023-04-27T05:12:27;100897.00;;;4.84;81.98
16355;BME280;8287;51.644;8.494;2023-04-27T05:14:54;100895.41;;;4.83;81.66
16355;BME280;8287;51.644;8.494;2023-04-27T05:17:20;100897.94;;;4.73;82.63
16355;BME280;8287;51.644;8.494;2023-04-27T05:19:47;100895.59;;;4.71;83.43
16355;BME280;8287;51.644;8.494;2023-04-27T05:22:13;100898.00;;;4.78;83.66
16355;BME280;8287;51.644;8.494;2023-04-27T05:24:41;100908.56;;;4.88;83.49
16355;BME280;8287;51.644;8.494;2023-04-27T05:27:08;100902.25;;;4.89;83.54
16355;BME280;8287;51.644;8.494;2023-04-27T05:29:34;100907.09;;;5.07;83.01
16355;BME280;8287;51.644;8.494;2023-04-27T05:32:01;100902.94;;;5.11;82.44
16355;BME280;8287;51.644;8.494;2023-04-27T05:34:27;100903.19;;;5.09;82.97
16355;BME280;8287;51.644;8.494;2023-04-27T05:36:54;100903.50;;;5.18;82.94
16355;BME280;8287;51.644;8.494;2023-04-27T05:39:20;100909.63;;;5.28;83.19
16355;BME280;8287;51.644;8.494;2023-04-27T05:41:48;100908.56;;;5.34;83.25
16355;BME280;8287;51.644;8.494;2023-04-27T05:44:15;100915.19;;;5.42;82.70
16355;BME280;8287;51.644;8.494;2023-04-27T05:46:41;100918.41;;;5.54;81.99
16355;BME280;8287;51.644;8.494;2023-04-27T05:49:08;100919.25;;;5.64;81.77
16355;BME280;8287;51.644;8.494;2023-04-27T05:51:34;100913.50;;;5.77;80.78
16355;BME280;8287;51.644;8.494;2023-04-27T05:54:02;100925.41;;;5.85;80.34
16355;BME280;8287;51.644;8.494;2023-04-27T05:56:29;100922.53;;;5.96;81.12
16355;BME280;8287;51.644;8.494;2023-04-27T05:58:57;100922.56;;;6.11;80.18
16355;BME280;8287;51.644;8.494;2023-04-27T06:01:23;100919.44;;;6.24;80.62
16355;BME280;8287;51.644;8.494;2023-04-27T06:03:51;100915.75;;;6.35;80.75
16355;BME280;8287;51.644;8.494;2023-04-27T06:06:18;100911.84;;;6.43;80.73
16355;BME280;8287;51.644;8.494;2023-04-27T06:08:52;100923.16;;;6.53;80.36
16355;BME280;8287;51.644;8.494;2023-04-27T06:11:18;100923.97;;;6.58;80.56
16355;BME280;8287;51.644;8.494;2023-04-27T06:13:45;100918.94;;;6.67;80.49
16355;BME280;8287;51.644;8.494;2023-04-27T06:16:13;100921.31;;;6.78;80.41
16355;BME280;8287;51.644;8.494;2023-04-27T06:18:40;100925.25;;;6.91;80.13
16355;BME280;8287;51.644;8.494;2023-04-27T06:21:06;100926.28;;;6.95;79.24
16355;BME280;8287;51.644;8.494;2023-04-27T06:23:33;100921.56;;;6.92;79.81
16355;BME280;8287;51.644;8.494;2023-04-27T06:26:00;100919.44;;;7.04;79.01
16355;BME280;8287;51.644;8.494;2023-04-27T06:28:26;100920.75;;;7.11;77.83
16355;BME280;8287;51.644;8.494;2023-04-27T06:30:53;100926.50;;;7.23;76.80
16355;BME280;8287;51.644;8.494;2023-04-27T06:33:21;100922.31;;;7.27;75.74
16355;BME280;8287;51.644;8.494;2023-04-27T06:35:47;100927.81;;;7.31;74.91
16355;BME280;8287;51.644;8.494;2023-04-27T06:38:14;100934.69;;;7.32;74.12
16355;BME280;8287;51.644;8.494;2023-04-27T06:40:41;100927.50;;;7.52;73.78
16355;BME280;8287;51.644;8.494;2023-04-27T06:43:07;100935.06;;;7.74;73.15
16355;BME280;8287;51.644;8.494;2023-04-27T06:45:34;100932.13;;;7.85;72.19
16355;BME280;8287;51.644;8.494;2023-04-27T06:48:00;100936.84;;;7.88;70.91
16355;BME280;8287;51.644;8.494;2023-04-27T06:50:28;100935.72;;;8.04;70.79
16355;BME280;8287;51.644;8.494;2023-04-27T06:52:55;100940.38;;;8.22;70.04
16355;BME280;8287;51.644;8.494;2023-04-27T06:55:21;100940.13;;;8.24;69.62
16355;BME280;8287;51.644;8.494;2023-04-27T06:57:48;100949.78;;;8.43;69.32
16355;BME280;8287;51.644;8.494;2023-04-27T07:00:15;100935.97;;;8.51;68.70
16355;BME280;8287;51.644;8.494;2023-04-27T07:02:41;100937.41;;;8.67;68.84
16355;BME280;8287;51.644;8.494;2023-04-27T07:05:08;100933.16;;;8.76;67.87
16355;BME280;8287;51.644;8.494;2023-04-27T07:07:36;100933.69;;;8.73;66.93
16355;BME280;8287;51.644;8.494;2023-04-27T07:10:03;100930.44;;;8.81;66.78
16355;BME280;8287;51.644;8.494;2023-04-27T07:12:30;100937.06;;;9.07;67.46
16355;BME280;8287;51.644;8.494;2023-04-27T07:14:56;100940.81;;;9.30;67.97
16355;BME280;8287;51.644;8.494;2023-04-27T07:17:23;100939.34;;;9.42;67.06
16355;BME280;8287;51.644;8.494;2023-04-27T07:19:49;100935.66;;;9.67;65.51
16355;BME280;8287;51.644;8.494;2023-04-27T07:22:16;100934.69;;;9.81;65.62
16355;BME280;8287;51.644;8.494;2023-04-27T07:24:45;100938.75;;;9.92;64.04
16355;BME280;8287;51.644;8.494;2023-04-27T07:27:12;100930.38;;;10.27;62.12
16355;BME280;8287;51.644;8.494;2023-04-27T07:29:39;100924.75;;;10.65;61.19
16355;BME280;8287;51.644;8.494;2023-04-27T07:32:07;100912.44;;;10.88;58.97
16355;BME280;8287;51.644;8.494;2023-04-27T07:34:33;100915.34;;;11.18;59.25
16355;BME280;8287;51.644;8.494;2023-04-27T07:37:00;100914.53;;;11.18;56.12
16355;BME280;8287;51.644;8.494;2023-04-27T07:39:27;100909.31;;;11.58;58.28
16355;BME280;8287;51.644;8.494;2023-04-27T07:41:55;100909.31;;;11.94;56.41
16355;BME280;8287;51.644;8.494;2023-04-27T07:44:22;100900.59;;;12.29;56.25
16355;BME280;8287;51.644;8.494;2023-04-27T07:46:49;100903.56;;;12.49;54.65
16355;BME280;8287;51.644;8.494;2023-04-27T07:49:18;100898.47;;;12.61;54.26
16355;BME280;8287;51.644;8.494;2023-04-27T07:51:44;100894.09;;;12.87;52.29
16355;BME280;8287;51.644;8.494;2023-04-27T07:54:11;100897.50;;;13.01;51.55
16355;BME280;8287;51.644;8.494;2023-04-27T07:56:40;100900.34;;;13.13;53.42
16355;BME280;8287;51.644;8.494;2023-04-27T07:59:08;100897.81;;;13.38;51.98
16355;BME280;8287;51.644;8.494;2023-04-27T08:01:35;100891.28;;;13.61;50.02
16355;BME280;8287;51.644;8.494;2023-04-27T08:04:02;100900.38;;;13.77;51.26
16355;BME280;8287;51.644;8.494;2023-04-27T08:06:29;100894.94;;;13.99;50.62
16355;BME280;8287;51.644;8.494;2023-04-27T08:08:55;100893.53;;;14.10;47.66
16355;BME280;8287;51.644;8.494;2023-04-27T08:11:25;100883.03;;;14.14;48.11
16355;BME280;8287;51.644;8.494;2023-04-27T08:13:51;100894.84;;;14.21;46.62
16355;BME280;8287;51.644;8.494;2023-04-27T08:16:19;100882.44;;;14.25;47.18
16355;BME280;8287;51.644;8.494;2023-04-27T08:18:46;100894.19;;;14.41;47.21
16355;BME280;8287;51.644;8.494;2023-04-27T08:21:12;100891.97;;;14.01;45.35
16355;BME280;8287;51.644;8.494;2023-04-27T08:23:39;100898.28;;;14.47;46.37
16355;BME280;8287;51.644;8.494;2023-04-27T08:26:05;100892.75;;;14.61;45.25
16355;BME280;8287;51.644;8.494;2023-04-27T08:28:32;100891.03;;;14.56;45.70
16355;BME280;8287;51.644;8.494;2023-04-27T08:30:58;100894.31;;;14.53;46.85
16355;BME280;8287;51.644;8.494;2023-04-27T08:33:26;100897.50;;;14.38;46.09
16355;BME280;8287;51.644;8.494;2023-04-27T08:35:53;100892.13;;;14.72;43.43
16355;BME280;8287;51.644;8.494;2023-04-27T08:38:19;100885.03;;;14.76;42.57
16355;BME280;8287;51.644;8.494;2023-04-27T08:40:46;100897.94;;;14.57;41.63
16355;BME280;8287;51.644;8.494;2023-04-27T08:43:13;100886.47;;;14.57;42.75
16355;BME280;8287;51.644;8.494;2023-04-27T08:45:46;100895.13;;;14.54;43.00
16355;BME280;8287;51.644;8.494;2023-04-27T08:48:13;100891.81;;;14.65;42.84
16355;BME280;8287;51.644;8.494;2023-04-27T08:50:42;100883.25;;;14.97;45.40
16355;BME280;8287;51.644;8.494;2023-04-27T08:53:16;100879.19;;;14.83;42.69
16355;BME280;8287;51.644;8.494;2023-04-27T08:55:42;100886.75;;;14.81;43.80
16355;BME280;8287;51.644;8.494;2023-04-27T08:58:09;100888.06;;;14.49;44.74
16355;BME280;8287;51.644;8.494;2023-04-27T09:00:40;100874.66;;;14.83;42.86
16355;BME280;8287;51.644;8.494;2023-04-27T09:03:07;100890.25;;;15.10;42.85
16355;BME280;8287;51.644;8.494;2023-04-27T09:05:34;100884.31;;;15.13;42.33
16355;BME280;8287;51.644;8.494;2023-04-27T09:08:03;100888.81;;;15.21;42.11
16355;BME280;8287;51.644;8.494;2023-04-27T09:10:42;100876.06;;;15.35;42.21
16355;BME280;8287;51.644;8.494;2023-04-27T09:13:09;100884.94;;;15.48;41.92
16355;BME280;8287;51.644;8.494;2023-04-27T09:15:40;100880.47;;;15.31;42.67
16355;BME280;8287;51.644;8.494;2023-04-27T09:18:13;100872.38;;;15.48;40.90
16355;BME280;8287;51.644;8.494;2023-04-27T09:20:44;100882.72;;;15.50;42.08
16355;BME280;8287;51.644;8.494;2023-04-27T09:23:24;100875.72;;;15.37;40.30
16355;BME280;8287;51.644;8.494;2023-04-27T09:25:52;100880.69;;;15.09;42.65
16355;BME280;8287;51.644;8.494;2023-04-27T09:28:18;100883.44;;;15.30;42.31
16355;BME280;8287;51.644;8.494;2023-04-27T09:30:51;100883.94;;;15.23;41.77
16355;BME280;8287;51.644;8.494;2023-04-27T09:33:21;100873.22;;;15.40;40.74
16355;BME280;8287;51.644;8.494;2023-04-27T09:35:48;100876.75;;;15.15;37.91
16355;BME280;8287;51.644;8.494;2023-04-27T09:38:17;100882.56;;;14.71;37.71
16355;BME280;8287;51.644;8.494;2023-04-27T09:40:44;100894.03;;;14.46;39.15
16355;BME280;8287;51.644;8.494;2023-04-27T09:43:11;100883.47;;;14.75;40.82
16355;BME280;8287;51.644;8.494;2023-04-27T09:45:37;100894.16;;;14.58;38.70
16355;BME280;8287;51.644;8.494;2023-04-27T09:48:05;100886.03;;;14.21;37.99
16355;BME280;8287;51.644;8.494;2023-04-27T09:50:34;100873.59;;;14.67;38.70
16355;BME280;8287;51.644;8.494;2023-04-27T09:53:01;100872.78;;;14.84;37.83
16355;BME280;8287;51.644;8.494;2023-04-27T09:55:34;100873.25;;;14.86;37.53
16355;BME280;8287;51.644;8.494;2023-04-27T09:58:13;100866.66;;;14.83;37.55
16355;BME280;8287;51.644;8.494;2023-04-27T10:00:51;100862.88;;;14.84;36.16
16355;BME280;8287;51.644;8.494;2023-04-27T10:03:25;100867.16;;;14.68;36.57
16355;BME280;8287;51.644;8.494;2023-04-27T10:08:56;100843.19;;;15.06;37.76
16355;BME280;8287;51.644;8.494;2023-04-27T10:11:37;100848.88;;;15.25;36.38
16355;BME280;8287;51.644;8.494;2023-04-27T10:14:05;100847.84;;;14.80;36.99
16355;BME280;8287;51.644;8.494;2023-04-27T10:16:38;100840.28;;;14.82;36.94
16355;BME280;8287;51.644;8.494;2023-04-27T10:19:08;100841.78;;;15.00;38.48
16355;BME280;8287;51.644;8.494;2023-04-27T10:21:35;100837.44;;;15.24;37.12
16355;BME280;8287;51.644;8.494;2023-04-27T10:24:06;100831.84;;;15.67;35.82
16355;BME280;8287;51.644;8.494;2023-04-27T10:26:35;100837.47;;;15.94;35.22
16355;BME280;8287;51.644;8.494;2023-04-27T10:29:04;100828.44;;;15.87;35.28
16355;BME280;8287;51.644;8.494;2023-04-27T10:31:31;100836.16;;;15.59;35.43
16355;BME280;8287;51.644;8.494;2023-04-27T10:34:05;100835.81;;;15.40;36.35
16355;BME280;8287;51.644;8.494;2023-04-27T10:36:35;100831.09;;;15.66;35.58
16355;BME280;8287;51.644;8.494;2023-04-27T10:39:12;100825.53;;;15.71;36.91
16355;BME280;8287;51.644;8.494;2023-04-27T10:41:48;100828.50;;;16.31;36.63
16355;BME280;8287;51.644;8.494;2023-04-27T10:44:15;100826.69;;;16.44;31.30
16355;BME280;8287;51.644;8.494;2023-04-27T10:46:49;100813.75;;;16.46;32.97
16355;BME280;8287;51.644;8.494;2023-04-27T10:49:15;100817.56;;;16.24;31.06
16355;BME280;8287;51.644;8.494;2023-04-27T10:51:42;100816.03;;;16.35;34.12
16355;BME280;8287;51.644;8.494;2023-04-27T10:54:09;100815.94;;;16.88;36.99
16355;BME280;8287;51.644;8.494;2023-04-27T10:56:36;100814.84;;;16.89;31.41
16355;BME280;8287;51.644;8.494;2023-04-27T10:59:04;100808.38;;;16.90;33.08
16355;BME280;8287;51.644;8.494;2023-04-27T11:01:31;100808.78;;;16.56;34.50
16355;BME280;8287;51.644;8.494;2023-04-27T11:03:59;100799.75;;;17.08;34.29
16355;BME280;8287;51.644;8.494;2023-04-27T11:06:26;100804.78;;;17.10;33.68
16355;BME280;8287;51.644;8.494;2023-04-27T11:08:54;100800.06;;;16.71;34.70
16355;BME280;8287;51.644;8.494;2023-04-27T11:11:21;100789.72;;;16.70;35.08
16355;BME280;8287;51.644;8.494;2023-04-27T11:13:48;100788.38;;;17.23;34.26
16355;BME280;8287;51.644;8.494;2023-04-27T11:16:18;100793.63;;;17.08;32.14
16355;BME280;8287;51.644;8.494;2023-04-27T11:18:44;100789.16;;;17.12;33.07
16355;BME280;8287;51.644;8.494;2023-04-27T11:21:13;100792.28;;;17.26;31.42
16355;BME280;8287;51.644;8.494;2023-04-27T11:23:40;100786.03;;;17.34;32.09
16355;BME280;8287;51.644;8.494;2023-04-27T11:26:08;100791.19;;;16.91;32.89
16355;BME280;8287;51.644;8.494;2023-04-27T11:28:35;100780.22;;;17.32;35.39
16355;BME280;8287;51.644;8.494;2023-04-27T11:31:01;100776.59;;;17.64;33.37
16355;BME280;8287;51.644;8.494;2023-04-27T11:33:30;100779.06;;;16.37;33.50
16355;BME280;8287;51.644;8.494;2023-04-27T11:35:57;100780.13;;;16.92;33.87
16355;BME280;8287;51.644;8.494;2023-04-27T11:38:24;100766.03;;;17.55;35.20
16355;BME280;8287;51.644;8.494;2023-04-27T11:40:59;100777.34;;;17.76;34.08
16355;BME280;8287;51.644;8.494;2023-04-27T11:43:26;100779.47;;;17.43;31.27
16355;BME280;8287;51.644;8.494;2023-04-27T11:45:54;100773.84;;;17.88;34.17
16355;BME280;8287;51.644;8.494;2023-04-27T11:48:22;100777.84;;;17.94;31.25
16355;BME280;8287;51.644;8.494;2023-04-27T11:50:50;100773.72;;;18.12;31.62
16355;BME280;8287;51.644;8.494;2023-04-27T11:53:28;100780.44;;;17.27;32.13
16355;BME280;8287;51.644;8.494;2023-04-27T11:55:54;100774.50;;;17.57;31.21
16355;BME280;8287;51.644;8.494;2023-04-27T11:58:22;100767.41;;;18.04;31.96
16355;BME280;8287;51.644;8.494;2023-04-27T12:00:50;100762.53;;;17.94;31.54
16355;BME280;8287;51.644;8.494;2023-04-27T12:03:17;100766.19;;;18.02;31.35
16355;BME280;8287;51.644;8.494;2023-04-27T12:05:47;100774.34;;;17.02;32.68
16355;BME280;8287;51.644;8.494;2023-04-27T12:08:15;100768.88;;;17.74;30.21
16355;BME280;8287;51.644;8.494;2023-04-27T12:10:42;100774.72;;;17.92;30.30
16355;BME280;8287;51.644;8.494;2023-04-27T12:13:08;100771.97;;;17.76;29.34
16355;BME280;8287;51.644;8.494;2023-04-27T12:15:36;100773.31;;;16.71;33.13
16355;BME280;8287;51.644;8.494;2023-04-27T12:18:02;100778.75;;;16.51;32.03
16355;BME280;8287;51.644;8.494;2023-04-27T12:20:29;100776.91;;;16.99;31.52
16355;BME280;8287;51.644;8.494;2023-04-27T12:22:56;100773.09;;;17.24;31.77
16355;BME280;8287;51.644;8.494;2023-04-27T12:25:24;100764.53;;;17.97;30.72
16355;BME280;8287;51.644;8.494;2023-04-27T12:27:50;100760.09;;;17.62;32.29
16355;BME280;8287;51.644;8.494;2023-04-27T12:30:18;100756.41;;;18.37;32.17
16355;BME280;8287;51.644;8.494;2023-04-27T12:32:46;100748.44;;;18.40;31.21
16355;BME280;8287;51.644;8.494;2023-04-27T12:35:13;100749.91;;;18.84;31.06
16355;BME280;8287;51.644;8.494;2023-04-27T12:37:39;100753.06;;;17.85;31.68
16355;BME280;8287;51.644;8.494;2023-04-27T12:40:07;100746.47;;;17.94;33.20
16355;BME280;8287;51.644;8.494;2023-04-27T12:42:36;100747.66;;;18.71;32.50
16355;BME280;8287;51.644;8.494;2023-04-27T12:45:03;100739.44;;;18.64;29.49
16355;BME280;8287;51.644;8.494;2023-04-27T12:47:29;100744.66;;;19.07;30.77
16355;BME280;8287;51.644;8.494;2023-04-27T12:49:59;100747.06;;;18.46;29.84
16355;BME280;8287;51.644;8.494;2023-04-27T12:52:26;100748.25;;;18.80;32.84
16355;BME280;8287;51.644;8.494;2023-04-27T12:54:53;100732.47;;;19.44;30.02
16355;BME280;8287;51.644;8.494;2023-04-27T12:57:23;100737.56;;;19.87;29.52
16355;BME280;8287;51.644;8.494;2023-04-27T12:59:52;100735.13;;;20.20;31.98
16355;BME280;8287;51.644;8.494;2023-04-27T13:02:18;100737.28;;;20.33;27.78
16355;BME280;8287;51.644;8.494;2023-04-27T13:04:45;100736.25;;;20.19;30.79
16355;BME280;8287;51.644;8.494;2023-04-27T13:07:12;100734.09;;;20.50;29.16
16355;BME280;8287;51.644;8.494;2023-04-27T13:09:38;100737.47;;;20.43;27.86
16355;BME280;8287;51.644;8.494;2023-04-27T13:12:06;100746.31;;;20.22;27.77